createdAt,value
2023-05-05T00:01:28.026Z,5.60
2023-05-05T00:03:54.659Z,5.77
2023-05-05T00:06:21.281Z,5.57
2023-05-05T00:08:47.866Z,6.17
2023-05-05T00:11:14.472Z,6.03
2023-05-05T00:13:41.113Z,6.40
2023-05-05T00:16:07.902Z,6.10
2023-05-05T00:18:34.546Z,6.00
2023-05-05T00:21:01.529Z,5.70
2023-05-05T00:23:28.164Z,4.93
2023-05-05T00:25:54.755Z,6.40
2023-05-05T00:28:21.854Z,6.07
2023-05-05T00:30:48.533Z,6.10
2023-05-05T00:33:15.220Z,5.90
2023-05-05T00:35:42.098Z,5.57
2023-05-05T00:38:09.298Z,6.53
2023-05-05T00:40:37.052Z,6.30
2023-05-05T00:43:03.693Z,5.97
2023-05-05T00:45:30.737Z,6.70
2023-05-05T00:47:59.533Z,6.10
2023-05-05T00:50:30.987Z,7.17
2023-05-05T00:53:03.376Z,5.30
2023-05-05T00:55:30.760Z,5.97
2023-05-05T00:57:58.765Z,5.73
2023-05-05T01:00:26.306Z,5.90
2023-05-05T01:02:53.181Z,5.80
2023-05-05T01:05:21.559Z,6.30
2023-05-05T01:08:12.902Z,6.40
2023-05-05T01:11:19.670Z,6.53
2023-05-05T01:14:27.378Z,6.10
2023-05-05T01:17:05.856Z,6.73
2023-05-05T01:19:51.182Z,6.00
2023-05-05T01:22:22.835Z,6.43
2023-05-05T01:25:12.759Z,6.10
2023-05-05T01:27:55.571Z,7.00
2023-05-05T01:30:59.771Z,6.77
2023-05-05T01:33:32.188Z,6.40
2023-05-05T01:36:05.402Z,6.40
2023-05-05T01:38:43.856Z,6.97
2023-05-05T01:41:18.212Z,6.27
2023-05-05T01:43:47.356Z,6.17
2023-05-05T01:46:15.835Z,6.07
2023-05-05T01:48:44.057Z,5.90
2023-05-05T01:51:12.356Z,6.70
2023-05-05T01:53:40.282Z,6.87
2023-05-05T01:56:08.269Z,6.70
2023-05-05T01:58:35.873Z,7.20
2023-05-05T02:01:03.885Z,6.73
2023-05-05T02:03:32.098Z,7.10
2023-05-05T02:06:01.110Z,6.27
2023-05-05T02:08:29.396Z,6.07
2023-05-05T02:10:56.527Z,7.03
2023-05-05T02:13:25.984Z,6.60
2023-05-05T02:15:54.701Z,6.23
2023-05-05T02:18:23.004Z,6.57
2023-05-05T02:20:49.622Z,6.00
2023-05-05T02:23:16.329Z,6.73
2023-05-05T02:25:51.164Z,6.30
2023-05-05T02:28:23.061Z,6.67
2023-05-05T02:30:57.520Z,6.57
2023-05-05T02:33:26.772Z,6.70
2023-05-05T02:35:56.465Z,6.30
2023-05-05T02:38:27.802Z,6.20
2023-05-05T02:40:56.451Z,6.37
2023-05-05T02:43:25.624Z,6.40
2023-05-05T02:45:52.250Z,6.37
2023-05-05T02:48:18.851Z,6.40
2023-05-05T02:50:45.480Z,7.03
2023-05-05T02:53:12.420Z,7.70
2023-05-05T02:56:07.972Z,8.10
2023-05-05T02:58:51.629Z,7.90
2023-05-05T03:01:29.008Z,8.10
2023-05-05T03:04:13.195Z,7.67
2023-05-05T03:06:43.065Z,10.10
2023-05-05T03:09:13.083Z,9.17
2023-05-05T03:12:08.338Z,8.70
2023-05-05T03:14:41.543Z,8.90
2023-05-05T03:17:11.120Z,9.23
2023-05-05T03:19:41.261Z,9.50
2023-05-05T03:22:08.430Z,9.40
2023-05-05T03:24:35.179Z,9.30
2023-05-05T03:27:02.670Z,10.07
2023-05-05T03:29:32.157Z,9.87
2023-05-05T03:32:00.796Z,10.50
2023-05-05T03:34:27.405Z,10.10
2023-05-05T03:36:53.937Z,10.43
2023-05-05T03:39:20.527Z,10.23
2023-05-05T03:41:47.137Z,10.40
2023-05-05T03:44:13.747Z,10.43
2023-05-05T03:46:40.350Z,9.93
2023-05-05T03:49:07.098Z,10.20
2023-05-05T03:51:36.356Z,11.30
2023-05-05T03:54:03.287Z,10.60
2023-05-05T03:56:29.834Z,10.47
2023-05-05T03:58:56.397Z,11.27
2023-05-05T04:01:25.703Z,10.97
2023-05-05T04:03:52.444Z,11.37
2023-05-05T04:06:19.121Z,12.00
2023-05-05T04:08:46.230Z,11.03
2023-05-05T04:11:12.965Z,11.10
2023-05-05T04:13:39.544Z,11.97
2023-05-05T04:16:06.376Z,11.97
2023-05-05T04:18:33.001Z,13.33
2023-05-05T04:20:59.601Z,12.70
2023-05-05T04:23:26.189Z,12.10
2023-05-05T04:25:52.862Z,11.73
2023-05-05T04:28:21.797Z,11.60
2023-05-05T04:30:48.759Z,11.77
2023-05-05T04:33:15.334Z,12.50
2023-05-05T04:35:41.891Z,11.10
2023-05-05T04:38:08.495Z,12.27
2023-05-05T04:40:39.286Z,12.27
2023-05-05T04:43:06.926Z,13.07
2023-05-05T04:45:33.697Z,14.03
2023-05-05T04:48:00.378Z,12.57
2023-05-05T04:50:27.007Z,12.77
2023-05-05T04:52:53.692Z,11.83
2023-05-05T04:55:20.400Z,12.17
2023-05-05T04:57:46.978Z,13.80
2023-05-05T05:00:13.934Z,13.00
2023-05-05T05:02:41.464Z,14.10
2023-05-05T05:05:09.405Z,13.30
2023-05-05T05:07:35.934Z,14.40
2023-05-05T05:10:02.548Z,13.93
2023-05-05T05:12:29.148Z,13.57
2023-05-05T05:14:55.816Z,15.00
2023-05-05T05:17:23.750Z,13.90
2023-05-05T05:19:50.313Z,13.80
2023-05-05T05:22:16.869Z,13.43
2023-05-05T05:24:46.223Z,14.57
2023-05-05T05:27:12.753Z,14.23
2023-05-05T05:29:39.329Z,13.60
2023-05-05T05:32:06.076Z,14.70
2023-05-05T05:34:32.712Z,12.90
2023-05-05T05:36:59.282Z,13.90
2023-05-05T05:39:25.834Z,13.87
2023-05-05T05:41:52.536Z,13.40
2023-05-05T05:44:19.080Z,13.27
2023-05-05T05:46:45.641Z,13.30
2023-05-05T05:49:12.278Z,13.13
2023-05-05T05:51:38.887Z,13.20
2023-05-05T05:54:05.585Z,13.17
2023-05-05T05:56:32.121Z,12.47
2023-05-05T05:58:58.733Z,12.63
2023-05-05T06:01:25.462Z,12.20
2023-05-05T06:03:52.573Z,12.50
2023-05-05T06:06:19.342Z,12.00
2023-05-05T06:08:46.313Z,13.83
2023-05-05T06:11:12.928Z,12.00
2023-05-05T06:13:39.469Z,12.07
2023-05-05T06:16:06.405Z,11.80
2023-05-05T06:18:32.995Z,12.47
2023-05-05T06:21:00.150Z,11.30
2023-05-05T06:23:27.323Z,11.77
2023-05-05T06:25:55.526Z,12.40
2023-05-05T06:28:22.092Z,11.47
2023-05-05T06:30:48.653Z,11.97
2023-05-05T06:33:15.199Z,9.70
2023-05-05T06:35:41.764Z,11.30
2023-05-05T06:38:09.593Z,9.30
2023-05-05T06:40:36.262Z,9.37
2023-05-05T06:43:02.828Z,8.93
2023-05-05T06:45:31.030Z,7.83
2023-05-05T06:47:57.757Z,7.70
2023-05-05T06:50:24.350Z,8.10
2023-05-05T06:52:52.362Z,8.00
2023-05-05T06:55:19.022Z,8.00
2023-05-05T06:57:45.583Z,7.10
2023-05-05T07:00:13.845Z,7.17
2023-05-05T07:02:41.133Z,7.37
2023-05-05T07:05:07.840Z,7.47
2023-05-05T07:07:34.442Z,6.77
2023-05-05T07:10:01.271Z,7.77
2023-05-05T07:12:31.216Z,7.20
2023-05-05T07:14:57.869Z,6.53
2023-05-05T07:17:24.554Z,6.93
2023-05-05T07:19:51.627Z,6.27
2023-05-05T07:22:18.193Z,6.40
2023-05-05T07:24:44.834Z,6.80
2023-05-05T07:27:11.526Z,6.50
2023-05-05T07:29:38.078Z,6.70
2023-05-05T07:32:05.284Z,6.83
2023-05-05T07:34:34.187Z,6.03
2023-05-05T07:37:00.896Z,5.67
2023-05-05T07:39:27.632Z,6.73
2023-05-05T07:41:54.239Z,5.83
2023-05-05T07:44:20.833Z,5.57
2023-05-05T07:46:47.513Z,6.30
2023-05-05T07:49:14.132Z,6.40
2023-05-05T07:51:40.766Z,6.47
2023-05-05T07:54:07.372Z,6.23
2023-05-05T07:56:34.124Z,6.60
2023-05-05T07:59:00.908Z,7.07
2023-05-05T08:01:27.509Z,6.37
2023-05-05T08:03:54.153Z,6.73
2023-05-05T08:06:22.069Z,7.47
2023-05-05T08:08:49.058Z,6.20
2023-05-05T08:11:16.045Z,6.33
2023-05-05T08:13:43.097Z,6.60
2023-05-05T08:16:09.953Z,7.70
2023-05-05T08:18:38.265Z,7.80
2023-05-05T08:21:06.191Z,7.23
2023-05-05T08:23:36.870Z,7.13
2023-05-05T08:26:06.179Z,6.70
2023-05-05T08:28:34.491Z,7.43
2023-05-05T08:31:01.239Z,7.20
2023-05-05T08:33:27.778Z,6.23
2023-05-05T08:35:54.342Z,7.13
2023-05-05T08:38:20.886Z,7.10
2023-05-05T08:40:47.621Z,6.83
2023-05-05T08:43:14.335Z,6.40
2023-05-05T08:45:42.122Z,5.80
2023-05-05T08:48:09.485Z,6.20
2023-05-05T08:50:39.114Z,5.20
2023-05-05T08:53:16.900Z,5.17
2023-05-05T08:55:51.596Z,4.23
2023-05-05T08:58:19.375Z,3.80
2023-05-05T09:00:46.661Z,4.73
2023-05-05T09:03:13.567Z,4.77
2023-05-05T09:05:42.719Z,4.00
2023-05-05T09:08:11.321Z,3.80
2023-05-05T09:10:41.472Z,4.70
2023-05-05T09:13:08.382Z,4.03
2023-05-05T09:15:35.364Z,4.00
2023-05-05T09:18:02.388Z,4.30
2023-05-05T09:20:36.931Z,4.30
2023-05-05T09:23:11.446Z,3.77
2023-05-05T09:25:38.937Z,3.13
2023-05-05T09:28:17.747Z,3.13
2023-05-05T09:30:46.092Z,3.13
2023-05-05T09:33:13.553Z,2.83
2023-05-05T09:35:49.403Z,3.67
2023-05-05T09:38:16.300Z,19.13
2023-05-05T09:40:47.974Z,13.20
2023-05-05T09:43:18.578Z,3.07
2023-05-05T09:45:45.294Z,3.90
2023-05-05T09:48:31.462Z,3.27
2023-05-05T09:50:59.297Z,7.97
2023-05-05T09:53:26.735Z,4.68
2023-05-05T09:55:57.642Z,3.60
2023-05-05T09:58:26.019Z,3.75
2023-05-05T10:00:53.392Z,5.78
2023-05-05T10:03:20.751Z,2.60
2023-05-05T10:05:51.981Z,2.70
2023-05-05T10:08:27.145Z,9.60
2023-05-05T10:11:00.360Z,3.00
2023-05-05T10:13:27.790Z,2.92
2023-05-05T10:15:56.863Z,2.15
2023-05-05T10:18:27.717Z,2.15
2023-05-05T10:20:59.864Z,2.30
2023-05-05T10:23:45.636Z,2.60
2023-05-05T10:26:14.331Z,2.50
2023-05-05T10:28:51.773Z,2.70
2023-05-05T10:31:26.499Z,2.60
2023-05-05T10:34:00.286Z,2.27
2023-05-05T10:36:28.261Z,2.30
2023-05-05T10:38:59.126Z,2.63
2023-05-05T10:41:26.856Z,2.33
2023-05-05T10:43:56.551Z,2.30
2023-05-05T10:46:24.492Z,3.10
2023-05-05T10:49:25.628Z,2.80
2023-05-05T10:52:00.631Z,2.38
2023-05-05T10:54:45.529Z,2.55
2023-05-05T10:57:14.526Z,2.60
2023-05-05T10:59:42.168Z,2.53
2023-05-05T11:02:28.608Z,2.28
2023-05-05T11:05:16.941Z,1.77
2023-05-05T11:07:49.792Z,2.47
2023-05-05T11:10:20.361Z,1.88
2023-05-05T11:12:57.739Z,1.55
2023-05-05T11:15:27.184Z,1.00
2023-05-05T11:17:55.191Z,1.70
2023-05-05T11:20:48.138Z,1.70
2023-05-05T11:23:21.920Z,2.10
2023-05-05T11:25:48.569Z,2.10
2023-05-05T11:28:21.175Z,1.90
2023-05-05T11:30:58.083Z,1.67
2023-05-05T11:33:45.681Z,2.00
2023-05-05T11:36:12.290Z,2.10
2023-05-05T11:39:12.964Z,2.17
2023-05-05T11:41:52.973Z,2.80
2023-05-05T11:44:29.560Z,1.57
2023-05-05T11:47:02.937Z,1.57
2023-05-05T11:49:34.345Z,1.80
2023-05-05T11:52:03.932Z,1.67
2023-05-05T11:54:31.505Z,1.70
2023-05-05T11:57:07.647Z,2.00
2023-05-05T11:59:38.602Z,1.77
2023-05-05T12:02:05.375Z,2.07
2023-05-05T12:04:32.162Z,2.40
2023-05-05T12:06:59.689Z,3.40
2023-05-05T12:09:27.340Z,1.60
2023-05-05T12:11:55.819Z,2.00
2023-05-05T12:14:23.805Z,3.40
2023-05-05T12:17:05.678Z,3.10
2023-05-05T12:19:35.546Z,2.60
2023-05-05T12:22:03.989Z,2.40
2023-05-05T12:24:31.132Z,2.27
2023-05-05T12:27:11.315Z,2.93
2023-05-05T12:29:38.105Z,3.10
2023-05-05T12:32:05.043Z,3.27
2023-05-05T12:34:32.047Z,2.80
2023-05-05T12:36:58.830Z,3.07
2023-05-05T12:39:36.253Z,3.20
2023-05-05T12:42:04.124Z,4.03
2023-05-05T12:44:37.604Z,4.10
2023-05-05T12:47:04.724Z,3.70
2023-05-05T12:49:34.281Z,4.30
2023-05-05T12:52:00.940Z,4.60
2023-05-05T12:54:30.683Z,3.53
2023-05-05T12:56:58.466Z,3.43
2023-05-05T12:59:24.963Z,3.63
2023-05-05T13:01:53.357Z,3.27
2023-05-05T13:04:22.904Z,4.10
2023-05-05T13:07:07.408Z,4.33
2023-05-05T13:09:34.588Z,5.40
2023-05-05T13:12:04.482Z,5.23
2023-05-05T13:14:35.042Z,5.07
2023-05-05T13:17:01.718Z,6.23
2023-05-05T13:19:30.571Z,7.00
2023-05-05T13:21:58.344Z,6.33
2023-05-05T13:24:38.095Z,8.73
2023-05-05T13:27:09.522Z,6.53
2023-05-05T13:29:36.226Z,6.13
2023-05-05T13:32:03.137Z,6.27
2023-05-05T13:34:29.913Z,6.73
2023-05-05T13:36:56.524Z,5.93
2023-05-05T13:39:23.109Z,6.83
2023-05-05T13:41:49.719Z,6.23
2023-05-05T13:44:16.298Z,6.63
2023-05-05T13:46:43.052Z,6.90
2023-05-05T13:49:11.978Z,6.20
2023-05-05T13:51:39.062Z,5.73
2023-05-05T13:54:06.826Z,4.20
2023-05-05T13:56:34.710Z,4.27
2023-05-05T13:59:02.298Z,4.70
2023-05-05T14:01:29.745Z,3.77
2023-05-05T14:03:57.598Z,3.93
2023-05-05T14:06:27.785Z,5.10
2023-05-05T14:08:54.412Z,5.70
2023-05-05T14:11:21.262Z,6.70
2023-05-05T14:13:48.026Z,4.40
2023-05-05T14:16:14.872Z,3.97
2023-05-05T14:18:41.834Z,4.03
2023-05-05T14:21:08.510Z,3.90
2023-05-05T14:23:35.253Z,3.30
2023-05-05T14:26:01.885Z,3.73
2023-05-05T14:28:28.605Z,3.70
2023-05-05T14:30:55.285Z,3.27
2023-05-05T14:33:22.161Z,3.53
2023-05-05T14:35:48.950Z,3.00
2023-05-05T14:38:15.698Z,3.43
2023-05-05T14:40:42.452Z,3.10
2023-05-05T14:43:09.050Z,3.10
2023-05-05T14:45:38.833Z,2.90
2023-05-05T14:48:05.736Z,3.23
2023-05-05T14:50:32.363Z,2.90
2023-05-05T14:52:58.941Z,3.07
2023-05-05T14:55:26.037Z,2.70
2023-05-05T14:57:52.660Z,2.50
2023-05-05T15:00:19.473Z,2.80
2023-05-05T15:02:48.010Z,2.93
2023-05-05T15:05:14.957Z,2.20
2023-05-05T15:07:41.583Z,2.70
2023-05-05T15:10:08.450Z,3.00
2023-05-05T15:12:35.084Z,2.43
2023-05-05T15:15:01.764Z,2.00
2023-05-05T15:17:28.650Z,2.03
2023-05-05T15:19:55.426Z,2.00
2023-05-05T15:22:22.115Z,2.00
2023-05-05T15:24:48.814Z,1.97
2023-05-05T15:27:15.457Z,2.30
2023-05-05T15:29:42.075Z,2.13
2023-05-05T15:32:08.674Z,1.30
2023-05-05T15:34:37.130Z,1.30
2023-05-05T15:37:03.779Z,1.50
2023-05-05T15:39:30.461Z,1.70
2023-05-05T15:41:57.056Z,1.40
2023-05-05T15:44:23.656Z,1.30
2023-05-05T15:46:50.678Z,1.73
2023-05-05T15:49:17.402Z,1.80
2023-05-05T15:51:44.052Z,1.90
2023-05-05T15:54:10.627Z,1.60
2023-05-05T15:56:37.384Z,1.67
2023-05-05T15:59:04.007Z,1.33
2023-05-05T16:01:31.243Z,1.33
2023-05-05T16:03:59.796Z,1.10
2023-05-05T16:06:27.200Z,0.70
2023-05-05T16:08:53.885Z,0.70
2023-05-05T16:11:22.410Z,0.60
2023-05-05T16:13:49.319Z,0.90
2023-05-05T16:16:15.921Z,0.70
2023-05-05T16:18:42.703Z,0.97
2023-05-05T16:21:09.284Z,0.80
2023-05-05T16:23:35.871Z,0.90
2023-05-05T16:26:03.959Z,1.10
2023-05-05T16:28:33.974Z,0.90
2023-05-05T16:31:01.726Z,0.90
2023-05-05T16:33:28.482Z,0.87
2023-05-05T16:35:55.179Z,1.00
2023-05-05T16:38:21.768Z,1.30
2023-05-05T16:40:48.386Z,1.00
2023-05-05T16:43:14.930Z,0.90
2023-05-05T16:45:41.492Z,0.90
2023-05-05T16:48:09.241Z,1.10
2023-05-05T16:50:36.227Z,1.00
2023-05-05T16:53:02.793Z,0.57
2023-05-05T16:55:29.614Z,0.80
2023-05-05T16:57:56.197Z,0.70
2023-05-05T17:00:22.811Z,0.80
2023-05-05T17:02:49.988Z,0.70
2023-05-05T17:05:17.520Z,0.97
2023-05-05T17:07:44.485Z,0.73
2023-05-05T17:10:11.071Z,0.80
2023-05-05T17:12:37.807Z,1.20
2023-05-05T17:15:04.881Z,1.30
2023-05-05T17:17:31.534Z,1.40
2023-05-05T17:19:58.263Z,1.40
2023-05-05T17:22:24.881Z,1.70
2023-05-05T17:24:51.823Z,1.50
2023-05-05T17:27:18.400Z,1.40
2023-05-05T17:29:45.000Z,1.17
2023-05-05T17:32:11.780Z,1.30
2023-05-05T17:34:38.476Z,1.20
2023-05-05T17:37:05.185Z,1.63
2023-05-05T17:39:32.450Z,1.50
2023-05-05T17:41:59.018Z,1.43
2023-05-05T17:44:25.630Z,1.10
2023-05-05T17:46:52.211Z,1.30
2023-05-05T17:49:18.770Z,1.40
2023-05-05T17:51:45.481Z,1.23
2023-05-05T17:54:12.068Z,1.73
2023-05-05T17:56:38.638Z,1.20
2023-05-05T17:59:05.195Z,1.80
2023-05-05T18:01:31.948Z,1.30
2023-05-05T18:03:58.611Z,1.50
2023-05-05T18:06:25.658Z,1.47
2023-05-05T18:08:52.401Z,1.10
2023-05-05T18:11:21.087Z,1.00
2023-05-05T18:13:47.634Z,1.00
2023-05-05T18:16:14.315Z,1.40
2023-05-05T18:18:41.567Z,1.97
2023-05-05T18:21:11.835Z,0.90
2023-05-05T18:23:39.326Z,1.10
2023-05-05T18:26:06.613Z,1.50
2023-05-05T18:28:33.240Z,2.10
2023-05-05T18:30:59.902Z,2.43
2023-05-05T18:33:26.458Z,2.97
2023-05-05T18:35:53.062Z,2.70
2023-05-05T18:38:19.697Z,2.67
2023-05-05T18:40:46.312Z,2.33
2023-05-05T18:43:13.023Z,3.60
2023-05-05T18:45:39.638Z,3.33
2023-05-05T18:48:06.793Z,2.77
2023-05-05T18:50:33.417Z,2.40
2023-05-05T18:52:59.980Z,2.80
2023-05-05T18:55:26.600Z,2.43
2023-05-05T18:57:53.277Z,1.80
2023-05-05T19:00:20.637Z,2.40
2023-05-05T19:02:47.294Z,2.43
2023-05-05T19:05:13.886Z,2.03
2023-05-05T19:07:40.764Z,2.00
2023-05-05T19:10:08.253Z,1.93
2023-05-05T19:12:35.030Z,2.40
2023-05-05T19:15:01.733Z,2.37
2023-05-05T19:17:28.300Z,2.30
2023-05-05T19:19:54.935Z,2.03
2023-05-05T19:22:23.410Z,1.67
2023-05-05T19:24:49.972Z,2.17
2023-05-05T19:27:17.228Z,2.20
2023-05-05T19:29:44.189Z,2.00
2023-05-05T19:32:10.936Z,2.20
2023-05-05T19:34:37.723Z,2.57
2023-05-05T19:37:04.429Z,2.90
2023-05-05T19:39:31.179Z,1.97
2023-05-05T19:41:57.736Z,2.00
2023-05-05T19:44:24.417Z,1.70
2023-05-05T19:46:52.599Z,1.70
2023-05-05T19:49:19.334Z,1.80
2023-05-05T19:51:47.550Z,1.50
2023-05-05T19:54:14.165Z,1.63
2023-05-05T19:56:40.749Z,1.50
2023-05-05T19:59:07.472Z,1.77
2023-05-05T20:01:35.140Z,1.60
2023-05-05T20:04:03.450Z,1.57
2023-05-05T20:06:30.191Z,1.60
2023-05-05T20:08:56.724Z,1.70
2023-05-05T20:11:24.801Z,1.73
2023-05-05T20:13:51.696Z,1.63
2023-05-05T20:16:18.875Z,1.40
2023-05-05T20:18:45.497Z,1.67
2023-05-05T20:21:12.387Z,1.77
2023-05-05T20:23:39.065Z,2.83
2023-05-05T20:26:06.247Z,2.40
2023-05-05T20:28:33.169Z,3.23
2023-05-05T20:31:00.716Z,2.83
2023-05-05T20:33:28.809Z,3.00
2023-05-05T20:35:55.744Z,2.90
2023-05-05T20:38:22.424Z,7.47
2023-05-05T20:40:49.858Z,13.67
2023-05-05T20:43:16.730Z,11.73
2023-05-05T20:45:43.346Z,14.83
2023-05-05T20:48:11.164Z,14.30
2023-05-05T20:50:38.944Z,9.40
2023-05-05T20:53:07.776Z,8.10
2023-05-05T20:55:34.400Z,3.80
2023-05-05T20:58:01.092Z,3.23
2023-05-05T21:00:27.689Z,2.70
2023-05-05T21:02:54.279Z,2.40
2023-05-05T21:05:21.218Z,2.17
2023-05-05T21:07:47.746Z,2.27
2023-05-05T21:10:14.390Z,3.10
2023-05-05T21:12:41.572Z,3.30
2023-05-05T21:15:09.097Z,3.03
2023-05-05T21:17:36.260Z,2.80
2023-05-05T21:20:03.010Z,3.00
2023-05-05T21:22:29.647Z,2.30
2023-05-05T21:25:12.637Z,2.43
2023-05-05T21:27:39.325Z,2.93
2023-05-05T21:30:08.624Z,2.40
2023-05-05T21:32:38.086Z,2.27
2023-05-05T21:35:06.129Z,2.30
2023-05-05T21:37:33.188Z,2.20
2023-05-05T21:39:59.814Z,2.63
2023-05-05T21:42:28.733Z,2.77
2023-05-05T21:44:55.336Z,2.10
2023-05-05T21:47:22.115Z,2.20
2023-05-05T21:49:48.862Z,2.60
2023-05-05T21:52:15.460Z,2.50
2023-05-05T21:54:42.025Z,3.10
2023-05-05T21:57:08.593Z,4.90
2023-05-05T21:59:35.174Z,4.13
2023-05-05T22:02:02.043Z,4.50
2023-05-05T22:04:28.673Z,3.97
2023-05-05T22:06:55.254Z,3.30
2023-05-05T22:09:21.787Z,3.00
2023-05-05T22:11:48.439Z,3.90
2023-05-05T22:14:15.843Z,3.33
2023-05-05T22:16:42.735Z,2.83
2023-05-05T22:19:09.443Z,3.67
2023-05-05T22:21:36.050Z,3.20
2023-05-05T22:24:02.674Z,3.47
2023-05-05T22:26:29.235Z,4.37
2023-05-05T22:28:56.141Z,3.13
2023-05-05T22:31:22.754Z,3.30
2023-05-05T22:33:49.313Z,2.60
2023-05-05T22:36:16.041Z,2.60
2023-05-05T22:38:42.606Z,2.70
2023-05-05T22:41:09.477Z,3.10
2023-05-05T22:43:36.728Z,3.10
2023-05-05T22:46:03.319Z,3.40
2023-05-05T22:48:29.921Z,3.07
2023-05-05T22:50:57.050Z,3.10
2023-05-05T22:53:23.691Z,3.10
2023-05-05T22:55:51.559Z,2.90
2023-05-05T22:58:18.373Z,3.17
2023-05-05T23:00:45.035Z,3.70
2023-05-05T23:03:12.097Z,3.50
2023-05-05T23:05:38.685Z,3.40
2023-05-05T23:08:05.509Z,3.73
2023-05-05T23:10:32.077Z,3.37
2023-05-05T23:13:01.426Z,4.20
2023-05-05T23:15:28.637Z,5.03
2023-05-05T23:17:55.354Z,4.07
2023-05-05T23:20:22.137Z,5.90
2023-05-05T23:22:48.698Z,5.80
2023-05-05T23:25:15.296Z,6.53
2023-05-05T23:27:42.002Z,6.60
2023-05-05T23:30:09.175Z,5.17
2023-05-05T23:32:35.812Z,4.30
2023-05-05T23:35:02.376Z,4.33
2023-05-05T23:37:28.987Z,3.40
2023-05-05T23:39:56.553Z,4.37
2023-05-05T23:42:23.632Z,4.90
2023-05-05T23:44:50.225Z,4.17
2023-05-05T23:47:16.850Z,4.27
2023-05-05T23:49:43.406Z,4.53
2023-05-05T23:52:11.168Z,6.10
2023-05-05T23:54:37.717Z,5.60
2023-05-05T23:57:04.348Z,5.97
2023-05-05T23:59:30.965Z,6.27
